Terminal Aerodrome Forecast
Issued by NWS Albany, NY

Current Version | Previous Version | Text Only | Print | Product List | Glossary On
Versions: 1 2 3 4 5 6 7 8 9 10 11 12 13 14 15 16 17 18 19
424
FTUS41 KALY 261140
TAFALB
TAF
KALB 261140Z 2612/2712 VRB03KT P6SM BCFG FEW150 SCT250
     FM261400 16007KT P6SM SCT250
     FM261800 17010G18KT P6SM SCT120 BKN250
     FM270000 17009KT P6SM SCT050 BKN120
     FM270400 16008KT 5SM -SHRA BR SCT025 OVC050
     FM270600 19006KT 3SM -SHRA BR OVC025
     FM270900 18004KT 4SM BR OVC015=

USA.gov is the U.S. government's official web portal to all federal, state and local government web resources and services.